Item Display Status Humidity-temperature Sensor

Elevation Above Sea Level: 3 m

 

Deployed Sensor

  • Serial Number: 20351080
  • NDBC Property Number: 43286
  • Start Date: 4/17/2020 (12:10:58 Z)
  • End Date: Currently Active
Relative Humidity [%]     6 entries per hour
Showing data from 12/10/2021 (18:50:00 Z) to 12/9/2021 (00:00:01 Z)
Previous Next [ Day | 3-Days | 7-Days ]
First Last
Prev [ Day | 3-Days | 7-Days ] Next
First Last

Start Time:     :
End Time:     :     
Time (in GMT) :00 :50 :40 :30 :20 :10
Previous Next [ Day | 3-Days | 7-Days ]
First Last
Prev [ Day | 3-Days | 7-Days ] Next
First Last


123 => good data
MM => data is determined as missing
-- => data not received/configured
Back to Top Back to Top
12/10/2021 19:00 to 18:10 -- 89.67 89.77 89.98 89.61 89.59
12/10/2021 18:00 to 17:10 89.73 88.69 89.61 89.79 90.16 90.69
12/10/2021 17:00 to 16:10 92.15 91.76 91.74 91.49 91.53 88.87
12/10/2021 16:00 to 15:10 88.87 89.81 90.12 89.57 89.28 89.43
12/10/2021 15:00 to 14:10 89.90 90.28 90.06 89.61 89.75 89.79
12/10/2021 14:00 to 13:10 89.92 90.82 91.59 91.49 92.23 91.51
12/10/2021 13:00 to 12:10 92.02 91.92 91.23 91.90 92.35 92.95
12/10/2021 12:00 to 11:10 92.19 91.49 91.41 92.56 91.49 90.51
12/10/2021 11:00 to 10:10 93.80 95.40 95.20 96.18 96.42 96.57
12/10/2021 10:00 to 9:10 96.98 97.73 98.41 98.45 96.92 96.38
12/10/2021 09:00 to 8:10 95.85 93.89 94.07 91.78 92.23 94.62
12/10/2021 08:00 to 7:10 95.81 94.81 91.98 94.07 93.50 89.73
12/10/2021 07:00 to 6:10 90.18 87.24 86.40 84.23 84.84 84.06
12/10/2021 06:00 to 5:10 80.05 78.29 85.56 85.07 85.37 85.27
12/10/2021 05:00 to 4:10 87.64 86.25 84.23 84.60 83.80 85.33
12/10/2021 04:00 to 3:10 83.76 83.69 83.80 81.16 82.49 82.16
12/10/2021 03:00 to 2:10 81.61 81.40 80.95 80.38 80.01 83.10
12/10/2021 02:00 to 1:10 82.14 83.45 81.96 82.75 82.38 83.63
12/10/2021 01:00 to 0:10 82.06 81.03 80.07 78.80 78.41 78.46
12/10/2021 00:00 to 23:10 78.62 79.34 81.30 81.73 84.04 83.47
12/9/2021 23:00 to 22:10 81.53 82.57 82.55 83.65 82.51 82.02
12/9/2021 22:00 to 21:10 81.05 80.52 81.22 80.17 79.91 79.56
12/9/2021 21:00 to 20:10 77.74 80.01 84.02 79.81 79.93 80.22
12/9/2021 20:00 to 19:10 81.42 78.66 78.35 77.15 75.51 77.08
12/9/2021 19:00 to 18:10 76.86 78.68 81.53 80.69 79.72 77.80
12/9/2021 18:00 to 17:10 77.19 77.55 79.91 79.17 80.32 80.07
12/9/2021 17:00 to 16:10 77.78 76.53 75.47 73.87 76.39 74.51
12/9/2021 16:00 to 15:10 75.32 77.02 79.89 80.30 79.36 81.59
12/9/2021 15:00 to 14:10 79.93 82.53 83.59 85.78 81.05 80.60
12/9/2021 14:00 to 13:10 78.35 78.54 79.87 82.43 83.06 81.65
12/9/2021 13:00 to 12:10 78.68 79.52 82.02 82.94 82.55 83.51
12/9/2021 12:00 to 11:10 84.49 85.76 83.82 83.24 82.16 80.09
12/9/2021 11:00 to 10:10 82.12 83.18 84.17 82.88 83.92 81.53
12/9/2021 10:00 to 9:10 78.84 78.50 78.58 80.95 81.57 83.26
12/9/2021 09:00 to 8:10 84.37 84.60 86.40 86.21 86.72 88.42
12/9/2021 08:00 to 7:10 90.26 88.32 86.56 83.96 82.49 82.79
12/9/2021 07:00 to 6:10 81.75 83.02 84.88 85.29 85.56 87.28
12/9/2021 06:00 to 5:10 87.30 87.32 87.38 87.97 87.28 88.77
12/9/2021 05:00 to 4:10 88.87 88.79 87.95 87.21 86.87 87.60
12/9/2021 04:00 to 3:10 88.73 89.16 87.56 89.08 88.71 88.97
12/9/2021 03:00 to 2:10 89.02 87.71 87.40 86.48 85.25 84.90
12/9/2021 02:00 to 1:10 84.55 84.94 85.95 85.00 85.60 85.02
12/9/2021 01:00 to 0:10 84.55 84.12 85.37 83.06 83.72 84.47

 

 

 

Air Temperature [°C]     6 entries per hour
Showing data from 12/10/2021 (18:50:00 Z) to 12/9/2021 (00:00:01 Z)
Previous Next [ Day | 3-Days | 7-Days ]
First Last
Prev [ Day | 3-Days | 7-Days ] Next
First Last

Start Time:     :
End Time:     :     
Time (in GMT) :00 :50 :40 :30 :20 :10
Previous Next [ Day | 3-Days | 7-Days ]
First Last
Prev [ Day | 3-Days | 7-Days ] Next
First Last


123 => good data
MM => data is determined as missing
-- => data not received/configured
Back to Top Back to Top
12/10/2021 19:00 to 18:10 -- 22.18 22.15 22.24 22.12 22.22
12/10/2021 18:00 to 17:10 22.13 22.05 22.08 21.94 22.03 22.04
12/10/2021 17:00 to 16:10 21.91 21.97 21.96 21.95 21.97 21.97
12/10/2021 16:00 to 15:10 22.14 22.03 22.08 22.08 22.10 22.04
12/10/2021 15:00 to 14:10 22.16 22.09 22.08 22.01 22.11 21.98
12/10/2021 14:00 to 13:10 21.95 22.08 21.95 21.88 21.77 21.73
12/10/2021 13:00 to 12:10 21.75 21.54 21.60 21.59 21.46 21.55
12/10/2021 12:00 to 11:10 21.64 21.64 21.59 21.60 21.50 21.58
12/10/2021 11:00 to 10:10 21.02 21.13 21.05 20.90 21.12 21.18
12/10/2021 10:00 to 9:10 20.99 20.85 20.81 20.60 20.96 21.15
12/10/2021 09:00 to 8:10 20.98 21.19 21.40 21.42 21.08 20.96
12/10/2021 08:00 to 7:10 20.91 21.03 21.15 21.17 21.05 21.62
12/10/2021 07:00 to 6:10 21.90 22.47 22.47 22.39 22.32 22.42
12/10/2021 06:00 to 5:10 22.45 22.29 22.14 22.19 22.27 22.13
12/10/2021 05:00 to 4:10 22.24 22.23 22.38 22.42 22.29 22.45
12/10/2021 04:00 to 3:10 22.26 22.29 22.41 22.33 22.30 22.29
12/10/2021 03:00 to 2:10 22.37 22.32 22.47 22.37 22.34 22.40
12/10/2021 02:00 to 1:10 22.36 22.43 22.47 22.26 22.26 22.40
12/10/2021 01:00 to 0:10 22.35 22.37 22.39 22.45 22.47 22.59
12/10/2021 00:00 to 23:10 22.57 22.58 22.65 22.48 22.39 22.45
12/9/2021 23:00 to 22:10 22.44 22.33 22.37 22.53 22.37 22.44
12/9/2021 22:00 to 21:10 22.42 22.45 22.57 22.45 22.50 22.62
12/9/2021 21:00 to 20:10 22.43 22.31 22.47 22.59 22.55 22.68
12/9/2021 20:00 to 19:10 22.67 22.70 22.66 22.65 22.61 22.57
12/9/2021 19:00 to 18:10 22.73 22.60 22.38 22.55 22.63 22.53
12/9/2021 18:00 to 17:10 22.65 22.56 22.66 22.72 22.68 22.63
12/9/2021 17:00 to 16:10 22.71 22.71 22.97 22.68 22.75 22.62
12/9/2021 16:00 to 15:10 22.62 22.53 22.44 22.54 22.39 22.54
12/9/2021 15:00 to 14:10 22.39 22.25 22.17 22.12 22.45 22.53
12/9/2021 14:00 to 13:10 22.55 22.52 22.34 22.32 22.36 22.38
12/9/2021 13:00 to 12:10 22.43 22.49 22.48 22.45 22.44 22.36
12/9/2021 12:00 to 11:10 22.24 22.17 22.35 22.41 22.42 22.56
12/9/2021 11:00 to 10:10 22.33 22.33 22.28 22.21 22.17 22.46
12/9/2021 10:00 to 9:10 22.49 22.67 22.60 22.55 22.53 22.44
12/9/2021 09:00 to 8:10 22.36 22.44 22.41 22.38 22.36 22.39
12/9/2021 08:00 to 7:10 22.31 22.33 22.44 22.58 22.56 22.68
12/9/2021 07:00 to 6:10 22.58 22.60 22.58 22.55 22.62 22.64
12/9/2021 06:00 to 5:10 22.59 22.70 22.66 22.61 22.62 22.69
12/9/2021 05:00 to 4:10 22.59 22.55 22.65 22.70 22.74 22.66
12/9/2021 04:00 to 3:10 22.60 22.69 22.64 22.69 22.69 22.63
12/9/2021 03:00 to 2:10 22.71 22.58 22.50 22.53 22.56 22.55
12/9/2021 02:00 to 1:10 22.56 22.51 22.59 22.47 22.50 22.55
12/9/2021 01:00 to 0:10 22.53 22.49 22.48 22.52 22.46 22.45